Saint Mawgan, United Kingdom

5:58 PM GMT on March 24, 2017 (GMT +0000)
Newquay | | Change Station

Elev 119 ft 50.42 °N, 5.05 °W | Updated 13 minutes ago

Partly Cloudy
Partly Cloudy
50.7 °F
Feels Like 50.7 °F
N
5.0
Wind Variable Wind from NE
Gusts 11.0 mph

Today
High -- | Low -- °F
--% Chance of Precip.
Yesterday
High -- | Low -- °F
Precip. -- in
Pressure 30.33 in
Visibility 3.1 miles
Clouds Scattered Clouds 1400 ft
Overcast 1600 ft
Dew Point 45 °F
Humidity 82%
Rainfall 0.02 in
Snow Depth Not available.
6:13 AM 6:39 PM
Waning Crescent, 14% visible
METAR EGDR 241650Z 05012KT 5000 HZ SCT014 OVC016 09/07 Q1027 GRN
Pressure 30.33 in
Visibility 3.1 miles
Clouds Scattered Clouds 1400 ft
Overcast 1600 ft
Dew Point 45 °F
Humidity 82%
Rainfall 0.02 in
Snow Depth Not available.
6:13 AM 6:39 PM
Waning Crescent, 14% visible
METAR EGDR 241650Z 05012KT 5000 HZ SCT014 OVC016 09/07 Q1027 GRN

Get Severe Weather Alerts

Thanks for signing up!

Be on the lookout for a verification email in your inbox.

You'll start receiving the daily forecast at 8 AM.

×

10-Day Weather Forecast

×

Almanac

Astronomy

Mar. 24, 2017 Rise Set
Actual Time
Civil Twilight
Nautical Twilight
Astronomical Twilight
Moon
Length of Visible Light
Length of Day
Tomorrow will be .
, % of the Moon is Illuminated

Today's Extremes

Country Highs Country Lows

Community

WunderPhotos

Upload Photos

1,962,540 photos uploaded!

WunderBlog® & News

Nearby

Air Quality

  Air Quality AQ Index Pollutant
Not available.

Snow Depth

Station Depth Elevation

Earthquake Activity

City Distance Mag. Time & Date
Minimum magnitude displayed is 2.5.

Earthquake Activity

City Distance Mag. Time & Date
Minimum magnitude displayed is 2.5.

Coastal Water Temperatures

Place Temperature

Stations

Nearby Weather Stations

Station Location Temp. Windchill Dew Point Humidity Wind Precip. Elev Updated Type